Time;durP1;ratioP1;P1;durP2;ratioP2;P2;SDS_P1;SDS_P2;PMS_P1;PMS_P2;Temp;Humidity;BMP_temperature;BMP_pressure;BME280_temperature;BME280_humidity;BME280_pressure;Samples;Min_cycle;Max_cycle;Signal;HPM_P1;HPM_P2
2023/07/04 00:01:24;;;;;;;12.32;11.02;;;;;;;20.14;74.92;94883.44;6128836;23;20194;-67
2023/07/04 00:03:57;;;;;;;12.45;11.15;;;;;;;20.08;74.73;94890.72;6128785;23;20230;-67
2023/07/04 00:06:29;;;;;;;14.32;12.30;;;;;;;20.02;75.03;94890.41;6129586;23;20183;-67
2023/07/04 00:08:59;;;;;;;14.88;12.55;;;;;;;20.04;74.93;94889.97;6129138;23;20567;-67
2023/07/04 00:11:31;;;;;;;15.40;13.30;;;;;;;20.05;75.00;94895.16;6128596;23;20171;-67
2023/07/04 00:14:00;;;;;;;14.20;12.70;;;;;;;20.06;75.44;94896.75;6128458;23;20175;-67
2023/07/04 00:16:30;;;;;;;12.95;11.38;;;;;;;20.09;75.33;94893.09;6129072;23;20171;-67
2023/07/04 00:18:58;;;;;;;11.57;10.38;;;;;;;20.09;75.37;94898.69;6128267;23;20195;-67
2023/07/04 00:21:28;;;;;;;11.98;10.77;;;;;;;20.11;74.97;94898.28;6128020;23;20183;-68
2023/07/04 00:23:57;;;;;;;13.65;12.18;;;;;;;20.03;75.24;94896.78;6127527;23;20172;-67
2023/07/04 00:26:29;;;;;;;14.48;12.98;;;;;;;19.95;75.00;94894.06;6129525;23;20214;-67
2023/07/04 00:29:00;;;;;;;15.55;13.00;;;;;;;19.96;74.91;94892.84;6128667;23;20186;-67
2023/07/04 00:31:28;;;;;;;13.32;11.88;;;;;;;19.99;75.20;94893.22;6128661;23;20172;-67
2023/07/04 00:33:57;;;;;;;14.57;12.25;;;;;;;19.99;74.58;94888.44;6128418;23;20194;-67
2023/07/04 00:36:25;;;;;;;15.75;12.98;;;;;;;20.01;74.78;94888.00;6128240;23;20178;-68
2023/07/04 00:38:57;;;;;;;15.98;12.63;;;;;;;20.01;74.96;94885.19;6129199;23;20188;-67
2023/07/04 00:41:30;;;;;;;15.73;13.27;;;;;;;19.95;75.11;94885.66;6128039;23;20179;-67
2023/07/04 00:44:09;;;;;;;16.77;14.05;;;;;;;19.85;75.38;94888.59;6127709;23;20186;-67
2023/07/04 00:46:43;;;;;;;16.42;13.68;;;;;;;19.71;75.54;94889.53;6128707;23;20206;-67
2023/07/04 00:49:18;;;;;;;15.07;12.43;;;;;;;19.63;75.80;94885.25;6128050;23;20179;-67
2023/07/04 00:51:50;;;;;;;12.93;11.30;;;;;;;19.60;75.84;94884.03;6129198;23;20164;-67
2023/07/04 00:54:23;;;;;;;12.63;10.63;;;;;;;19.63;76.42;94877.63;6127768;23;20182;-67
2023/07/04 00:57:06;;;;;;;12.20;10.35;;;;;;;19.68;76.11;94880.00;6128204;23;20199;-68
2023/07/04 00:59:43;;;;;;;11.40;10.20;;;;;;;19.69;76.61;94878.78;6127747;23;20628;-68
2023/07/04 01:02:10;;;;;;;10.60;9.38;;;;;;;19.70;76.28;94880.34;6129051;23;20175;-67
2023/07/04 01:04:39;;;;;;;12.60;10.80;;;;;;;19.63;76.20;94886.03;6127626;23;20577;-67
2023/07/04 01:07:16;;;;;;;12.38;10.85;;;;;;;19.55;76.42;94884.50;6129019;23;20168;-67
2023/07/04 01:09:47;;;;;;;11.23;10.07;;;;;;;19.45;75.87;94872.19;6127578;23;20175;-68
2023/07/04 01:12:18;;;;;;;13.50;10.13;;;;;;;19.35;76.23;94881.47;6128577;23;20168;-67
2023/07/04 01:14:48;;;;;;;13.18;10.70;;;;;;;19.33;76.31;94888.72;6128686;23;20178;-67
2023/07/04 01:17:16;;;;;;;14.00;10.85;;;;;;;19.38;76.70;94888.25;6128591;23;20172;-67
2023/07/04 01:19:47;;;;;;;12.35;9.50;;;;;;;19.45;76.97;94885.38;6103417;23;20217;-67
2023/07/04 01:22:24;;;;;;;13.18;9.52;;;;;;;19.48;76.72;94878.97;6138755;23;20172;-67
2023/07/04 01:25:01;;;;;;;11.43;9.55;;;;;;;19.43;76.71;94882.22;6127571;23;20171;-68
2023/07/04 01:27:37;;;;;;;12.63;9.00;;;;;;;19.38;76.57;94879.88;6127674;23;20175;-68
2023/07/04 01:30:07;;;;;;;10.35;8.65;;;;;;;19.36;76.84;94887.88;6128800;23;20155;-68
2023/07/04 01:32:38;;;;;;;12.52;8.75;;;;;;;19.32;76.67;94882.34;6128964;23;20171;-68
2023/07/04 01:35:11;;;;;;;10.32;8.52;;;;;;;19.29;76.58;94876.78;6152804;23;20219;-68
2023/07/04 01:37:39;;;;;;;9.63;8.60;;;;;;;19.30;77.03;94878.34;6128071;23;20172;-68
2023/07/04 01:40:09;;;;;;;9.25;7.57;;;;;;;19.31;77.56;94877.13;6127245;23;20200;-68
2023/07/04 01:42:38;;;;;;;8.50;7.68;;;;;;;19.33;77.54;94881.13;6138910;23;20171;-68
2023/07/04 01:45:08;;;;;;;8.35;7.20;;;;;;;19.35;77.01;94880.69;6128495;23;20164;-68
2023/07/04 01:47:37;;;;;;;8.15;7.35;;;;;;;19.36;77.27;94879.50;6127880;23;20182;-68
2023/07/04 01:50:09;;;;;;;7.28;6.60;;;;;;;19.39;77.78;94890.66;6138326;23;20160;-68
2023/07/04 01:52:37;;;;;;;7.55;6.80;;;;;;;19.44;77.31;94890.19;6127369;23;20689;-68
2023/07/04 01:55:06;;;;;;;7.00;6.35;;;;;;;19.43;76.77;94890.63;6138556;23;20175;-68
2023/07/04 01:57:35;;;;;;;8.93;7.47;;;;;;;19.39;76.89;94885.06;6128086;23;20176;-68
2023/07/04 02:00:09;;;;;;;9.20;7.45;;;;;;;19.36;77.35;94880.28;6128271;23;20217;-68
2023/07/04 02:02:37;;;;;;;9.40;8.35;;;;;;;19.29;76.87;94888.75;6128399;23;20628;-68
2023/07/04 02:05:04;;;;;;;9.63;7.80;;;;;;;19.29;77.09;94885.16;6103363;23;20204;-68
2023/07/04 02:07:31;;;;;;;7.72;6.93;;;;;;;19.29;76.64;94894.34;6128741;23;20160;-68
2023/07/04 02:10:00;;;;;;;8.55;7.68;;;;;;;19.26;76.74;94899.97;6128695;23;20219;-68
2023/07/04 02:12:28;;;;;;;8.25;7.45;;;;;;;19.23;77.45;94893.97;6128777;23;20160;-68
2023/07/04 02:14:56;;;;;;;9.60;7.05;;;;;;;19.23;77.24;94905.16;6128369;23;20184;-68
2023/07/04 02:17:27;;;;;;;6.80;6.20;;;;;;;19.19;76.99;94900.81;6103382;23;20172;-68
2023/07/04 02:19:58;;;;;;;7.55;6.85;;;;;;;19.13;77.35;94906.03;6152403;23;20192;-67
2023/07/04 02:22:26;;;;;;;7.20;6.50;;;;;;;19.09;77.59;94898.91;6127822;23;20199;-67
2023/07/04 02:24:55;;;;;;;7.25;6.57;;;;;;;19.13;77.91;94894.06;6127065;23;20176;-67
2023/07/04 02:27:22;;;;;;;7.47;5.97;;;;;;;19.18;78.18;94893.63;6128699;23;20235;-67
2023/07/04 02:29:50;;;;;;;7.18;6.53;;;;;;;19.13;77.42;94903.25;6128612;23;20175;-67
2023/07/04 02:32:18;;;;;;;10.57;7.22;;;;;;;19.09;77.39;94890.50;6151724;23;20581;-68
2023/07/04 02:34:50;;;;;;;7.82;6.20;;;;;;;19.10;77.11;94892.09;6127676;23;20175;-68
2023/07/04 02:37:19;;;;;;;10.02;6.95;;;;;;;19.05;76.89;94884.94;6127166;23;20180;-67
2023/07/04 02:39:49;;;;;;;8.07;7.03;;;;;;;18.98;76.98;94883.00;6128482;23;20184;-68
2023/07/04 02:42:18;;;;;;;9.18;7.10;;;;;;;19.01;77.58;94889.78;6128153;23;20198;-68
2023/07/04 02:44:47;;;;;;;8.15;7.28;;;;;;;19.00;77.07;94891.00;6127600;23;20183;-67
2023/07/04 02:47:15;;;;;;;10.07;7.93;;;;;;;19.00;77.19;94891.00;6129791;23;20175;-67
2023/07/04 02:49:46;;;;;;;9.68;7.85;;;;;;;19.01;77.33;94889.78;6130440;23;20195;-67
2023/07/04 02:52:23;;;;;;;9.45;7.70;;;;;;;19.01;77.32;94878.59;6129267;23;20203;-67
2023/07/04 02:54:53;;;;;;;9.05;7.53;;;;;;;19.00;77.62;94883.41;6129055;23;20238;-67
2023/07/04 02:57:23;;;;;;;9.60;7.55;;;;;;;19.01;77.32;94889.78;6128986;23;20168;-67
2023/07/04 02:59:52;;;;;;;10.52;7.95;;;;;;;18.95;77.68;94885.81;6130210;23;20191;-67
2023/07/04 03:02:21;;;;;;;10.45;8.13;;;;;;;18.93;78.21;94877.06;6130262;23;20160;-67
2023/07/04 03:04:53;;;;;;;11.18;8.30;;;;;;;18.93;77.93;94880.66;6153828;23;20175;-67
2023/07/04 03:07:29;;;;;;;12.18;8.35;;;;;;;18.85;77.63;94884.72;6129525;23;20184;-67
2023/07/04 03:09:58;;;;;;;9.07;8.25;;;;;;;18.84;77.93;94887.91;6130195;23;20171;-67
2023/07/04 03:12:29;;;;;;;10.68;8.38;;;;;;;18.85;78.01;94887.53;6129302;23;20195;-67
2023/07/04 03:15:00;;;;;;;11.52;8.40;;;;;;;18.83;77.60;94886.34;6139665;23;20156;-67
2023/07/04 03:17:31;;;;;;;8.70;7.63;;;;;;;18.84;78.05;94899.88;6130250;23;20188;-67
2023/07/04 03:20:05;;;;;;;9.90;7.65;;;;;;;18.84;77.93;94890.72;6153508;23;20195;-67
2023/07/04 03:22:38;;;;;;;8.85;7.60;;;;;;;18.83;77.99;94891.91;6129977;23;20158;-67
2023/07/04 03:25:08;;;;;;;9.63;7.65;;;;;;;18.79;78.30;94889.16;6129766;23;20202;-67
2023/07/04 03:27:39;;;;;;;8.40;7.55;;;;;;;18.79;78.62;94888.38;6129638;23;20187;-67
2023/07/04 03:30:11;;;;;;;9.10;7.20;;;;;;;18.80;78.38;94887.16;6130001;23;20171;-67
2023/07/04 03:32:41;;;;;;;8.45;7.60;;;;;;;18.81;78.96;94889.56;6153874;23;20172;-67
2023/07/04 03:35:10;;;;;;;10.85;8.13;;;;;;;18.82;78.61;94879.97;6128104;23;20180;-67
2023/07/04 03:37:39;;;;;;;8.23;7.43;;;;;;;18.82;78.61;94885.53;6128866;23;20585;-67
2023/07/04 03:40:12;;;;;;;9.25;6.65;;;;;;;18.78;78.73;94895.94;6128289;23;20196;-66
2023/07/04 03:42:43;;;;;;;11.13;7.85;;;;;;;18.80;78.72;94895.53;6129913;23;20190;-66
2023/07/04 03:45:14;;;;;;;8.30;6.97;;;;;;;18.80;78.60;94892.75;6129875;23;20247;-66
2023/07/04 03:47:44;;;;;;;10.10;7.13;;;;;;;18.79;78.37;94905.91;6129529;23;20176;-66
2023/07/04 03:50:13;;;;;;;7.60;6.82;;;;;;;18.81;78.40;94902.69;6128639;23;20215;-66
2023/07/04 03:52:49;;;;;;;9.65;6.75;;;;;;;18.84;78.91;94911.06;6153518;23;20183;-66
2023/07/04 03:55:20;;;;;;;7.07;6.20;;;;;;;18.84;78.75;94904.69;6129965;23;20156;-69
2023/07/04 03:57:50;;;;;;;7.72;6.80;;;;;;;18.82;77.74;94915.50;6128206;23;20207;-70
2023/07/04 04:00:19;;;;;;;7.25;6.32;;;;;;;18.81;77.46;94917.50;6152672;23;20223;-67
2023/07/04 04:02:54;;;;;;;7.25;6.55;;;;;;;18.83;77.45;94919.88;6128264;23;20180;-67
2023/07/04 04:05:23;;;;;;;8.95;6.50;;;;;;;18.82;77.36;94919.06;6139157;23;20242;-66
2023/07/04 04:07:54;;;;;;;7.70;6.80;;;;;;;18.84;77.56;94919.44;6128091;23;20179;-66
2023/07/04 04:10:21;;;;;;;7.53;6.68;;;;;;;18.86;77.64;94913.47;6128475;23;20172;-66
2023/07/04 04:12:52;;;;;;;7.15;5.65;;;;;;;18.85;77.70;94926.63;6129660;23;20222;-66
2023/07/04 04:15:20;;;;;;;7.07;5.78;;;;;;;18.83;77.00;94917.84;6153174;23;20192;-66
2023/07/04 04:17:49;;;;;;;6.55;5.80;;;;;;;18.84;76.85;94930.63;6104403;23;20171;-66
2023/07/04 04:20:18;;;;;;;6.30;5.60;;;;;;;18.81;76.61;94925.88;6129313;23;20192;-68
2023/07/04 04:22:48;;;;;;;6.25;5.40;;;;;;;18.84;76.66;94936.19;6139244;23;20462;-70
2023/07/04 04:25:22;;;;;;;7.03;5.85;;;;;;;18.85;76.66;94942.63;6128841;23;20687;-70
2023/07/04 04:27:53;;;;;;;6.03;5.53;;;;;;;18.84;76.48;94935.41;6128316;23;20179;-68
2023/07/04 04:30:25;;;;;;;6.57;5.53;;;;;;;18.85;76.65;94931.44;6128240;23;20262;-67
2023/07/04 04:32:55;;;;;;;5.80;5.30;;;;;;;18.87;77.00;94937.38;6128639;23;20202;-66
2023/07/04 04:35:25;;;;;;;6.78;5.68;;;;;;;18.87;76.72;94940.97;6138845;23;20170;-66
2023/07/04 04:37:56;;;;;;;5.90;5.30;;;;;;;18.89;76.70;94944.16;6129442;23;20167;-66
2023/07/04 04:40:32;;;;;;;7.45;5.93;;;;;;;18.92;76.64;94946.16;6129275;23;20184;-66
2023/07/04 04:43:03;;;;;;;6.75;5.53;;;;;;;18.93;76.46;94942.13;6138966;23;20172;-66
2023/07/04 04:45:32;;;;;;;6.15;5.47;;;;;;;18.93;76.85;94944.94;6128024;23;20172;-65
2023/07/04 04:48:01;;;;;;;7.22;5.75;;;;;;;18.94;77.19;94943.72;6103423;23;20175;-66
2023/07/04 04:50:35;;;;;;;5.88;5.35;;;;;;;18.99;77.26;94948.06;6153143;23;20250;-65
2023/07/04 04:53:06;;;;;;;5.90;5.40;;;;;;;18.99;76.67;94942.47;6128866;23;20238;-65
2023/07/04 04:55:42;;;;;;;7.10;5.50;;;;;;;19.01;76.78;94945.69;6128406;23;20168;-66
2023/07/04 04:58:12;;;;;;;6.53;5.93;;;;;;;19.02;76.63;94952.84;6138572;23;20175;-66
2023/07/04 05:00:41;;;;;;;8.55;6.13;;;;;;;19.05;76.53;94949.25;6128385;23;20230;-65
2023/07/04 05:03:09;;;;;;;6.70;5.75;;;;;;;19.07;76.25;94946.03;6152703;23;20176;-66
2023/07/04 05:05:37;;;;;;;6.82;5.85;;;;;;;19.11;76.86;94944.81;6129256;23;20164;-66
2023/07/04 05:08:08;;;;;;;6.18;5.63;;;;;;;19.13;76.30;94939.59;6129161;23;20644;-66
2023/07/04 05:10:42;;;;;;;6.88;5.32;;;;;;;19.15;76.85;94945.56;6127897;23;20277;-66
2023/07/04 05:13:12;;;;;;;6.72;5.97;;;;;;;19.18;76.37;94944.75;6127589;23;20538;-65
2023/07/04 05:15:40;;;;;;;6.00;5.50;;;;;;;19.17;76.46;94943.16;6128941;23;20164;-67
2023/07/04 05:18:09;;;;;;;6.53;5.70;;;;;;;19.19;76.60;94943.53;6127851;23;20175;-69
2023/07/04 05:20:45;;;;;;;6.05;5.50;;;;;;;19.23;76.40;94941.50;6152836;23;20196;-68
2023/07/04 05:23:15;;;;;;;7.20;5.72;;;;;;;19.29;76.76;94941.09;6128562;23;20187;-68
2023/07/04 05:25:48;;;;;;;7.00;5.88;;;;;;;19.33;77.20;94930.66;6128814;23;20230;-69
2023/07/04 05:28:17;;;;;;;6.63;5.70;;;;;;;19.37;77.02;94931.41;6152326;23;20184;-69
2023/07/04 05:30:49;;;;;;;6.30;5.70;;;;;;;19.41;77.48;94923.78;6128930;23;20178;-69
2023/07/04 05:33:17;;;;;;;6.72;6.07;;;;;;;19.44;77.60;94934.16;6128285;23;20176;-69
2023/07/04 05:35:47;;;;;;;6.50;6.00;;;;;;;19.49;77.54;94939.28;6128908;23;20175;-70
2023/07/04 05:38:15;;;;;;;6.90;6.25;;;;;;;19.55;77.45;94934.84;6127356;23;20178;-69
2023/07/04 05:40:47;;;;;;;7.50;6.50;;;;;;;19.63;77.00;94933.59;6127770;23;20515;-68
2023/07/04 05:43:15;;;;;;;6.53;5.88;;;;;;;19.66;76.06;94931.97;6128021;23;20176;-68
2023/07/04 05:45:48;;;;;;;6.82;6.13;;;;;;;19.67;75.97;94936.34;6128917;23;20164;-68
2023/07/04 05:48:19;;;;;;;7.22;6.30;;;;;;;19.68;76.36;94938.75;6127448;23;20640;-68
2023/07/04 05:50:54;;;;;;;7.93;7.22;;;;;;;19.72;76.27;94933.13;6128833;23;20167;-69
2023/07/04 05:53:24;;;;;;;8.73;7.00;;;;;;;19.78;75.93;94939.81;6127456;23;20636;-69
2023/07/04 05:56:07;;;;;;;7.28;6.47;;;;;;;19.84;76.16;94940.97;6127457;23;20234;-69
2023/07/04 05:58:36;;;;;;;7.47;6.78;;;;;;;19.89;76.42;94937.72;6128771;23;20156;-70
2023/07/04 06:01:10;;;;;;;7.10;6.40;;;;;;;19.98;76.82;94930.84;6152008;23;20187;-70
2023/07/04 06:03:38;;;;;;;10.77;6.90;;;;;;;20.12;76.51;94936.28;6138449;23;20537;-67
2023/07/04 06:06:19;;;;;;;9.15;6.30;;;;;;;20.23;75.63;94928.53;6128600;23;20180;-67
2023/07/04 06:08:47;;;;;;;8.45;6.07;;;;;;;20.28;74.78;94936.47;6128818;23;20167;-67
2023/07/04 06:11:19;;;;;;;7.45;6.40;;;;;;;20.34;74.74;94939.63;6128127;23;20218;-67
2023/07/04 06:13:47;;;;;;;6.95;6.05;;;;;;;20.40;74.74;94935.13;6127658;23;20176;-67
2023/07/04 06:16:15;;;;;;;9.50;6.20;;;;;;;20.46;74.71;94941.06;6127494;23;20179;-67
2023/07/04 06:18:44;;;;;;;7.28;5.90;;;;;;;20.48;74.42;94944.22;6128982;23;20160;-67
2023/07/04 06:21:15;;;;;;;5.70;5.15;;;;;;;20.50;73.72;94928.59;6129380;23;20215;-67
2023/07/04 06:23:43;;;;;;;6.25;5.38;;;;;;;20.52;73.51;94939.41;6154359;23;20182;-67
2023/07/04 06:26:12;;;;;;;6.22;5.63;;;;;;;20.51;73.49;94935.78;6130161;23;20200;-67
2023/07/04 06:28:44;;;;;;;7.00;5.47;;;;;;;20.55;73.42;94927.34;6129383;23;20180;-67
2023/07/04 06:31:15;;;;;;;6.07;5.43;;;;;;;20.58;72.97;94929.31;6130173;23;20156;-67
2023/07/04 06:33:45;;;;;;;7.13;6.53;;;;;;;20.62;73.36;94930.84;6130563;23;20195;-67
2023/07/04 06:36:15;;;;;;;8.07;7.28;;;;;;;20.65;72.93;94927.19;6139857;23;20186;-67
2023/07/04 06:38:44;;;;;;;8.05;7.25;;;;;;;20.71;73.00;94932.34;6153920;23;20172;-67
2023/07/04 06:41:14;;;;;;;7.20;6.50;;;;;;;20.74;72.98;94939.91;6129443;23;20192;-68
2023/07/04 06:43:49;;;;;;;8.05;6.80;;;;;;;20.78;73.49;94938.63;6130117;23;20186;-67
2023/07/04 06:46:19;;;;;;;7.65;6.70;;;;;;;20.81;73.42;94940.59;6130228;23;20179;-67
2023/07/04 06:48:51;;;;;;;7.63;6.90;;;;;;;20.87;73.55;94940.91;6130809;23;20203;-67
2023/07/04 06:51:25;;;;;;;8.77;6.70;;;;;;;20.92;73.99;94937.66;6129486;23;20175;-67
2023/07/04 06:53:56;;;;;;;7.30;6.55;;;;;;;20.95;74.37;94939.56;6130370;23;20164;-67
2023/07/04 06:56:26;;;;;;;6.78;6.18;;;;;;;20.98;74.14;94937.94;6129317;23;20191;-67
2023/07/04 06:59:02;;;;;;;7.45;6.75;;;;;;;20.99;74.14;94943.16;6139843;23;20202;-67
2023/07/04 07:01:38;;;;;;;7.85;7.05;;;;;;;21.02;74.07;94941.47;6129787;23;20179;-67
2023/07/04 07:04:11;;;;;;;7.22;6.53;;;;;;;21.05;73.72;94930.22;6130181;23;20167;-68
2023/07/04 07:06:42;;;;;;;7.03;6.38;;;;;;;21.08;73.16;94928.59;6129432;23;20175;-70
2023/07/04 07:09:12;;;;;;;7.28;6.53;;;;;;;21.11;72.73;94933.34;6139630;23;20488;-67
2023/07/04 07:11:44;;;;;;;7.55;6.80;;;;;;;21.14;72.51;94930.47;6129219;23;20172;-67
2023/07/04 07:14:13;;;;;;;6.97;6.28;;;;;;;21.18;72.46;94929.66;6128955;23;20174;-67
2023/07/04 07:16:41;;;;;;;7.80;7.00;;;;;;;21.21;72.48;94931.59;6129172;23;20183;-67
2023/07/04 07:19:09;;;;;;;8.02;7.15;;;;;;;21.23;72.49;94934.75;6130135;23;20175;-67
2023/07/04 07:21:39;;;;;;;8.95;8.15;;;;;;;21.26;71.56;94940.31;6139770;23;20191;-67
2023/07/04 07:24:07;;;;;;;7.90;7.20;;;;;;;21.27;71.42;94932.69;6130033;23;20159;-67
2023/07/04 07:26:35;;;;;;;8.75;7.88;;;;;;;21.29;71.30;94930.25;6128415;23;20210;-67
2023/07/04 07:29:03;;;;;;;8.25;6.82;;;;;;;21.32;71.10;94930.19;6128878;23;20175;-67
2023/07/04 07:31:36;;;;;;;7.75;6.95;;;;;;;21.36;71.55;94930.16;6128941;23;20167;-69
2023/07/04 07:34:05;;;;;;;7.40;6.70;;;;;;;21.39;71.71;94935.72;6129930;23;20215;-68
2023/07/04 07:36:37;;;;;;;7.53;6.80;;;;;;;21.45;71.79;94935.22;6130050;23;20156;-68
2023/07/04 07:39:09;;;;;;;8.05;6.38;;;;;;;21.49;72.04;94930.34;6129517;23;20463;-71
2023/07/04 07:41:42;;;;;;;6.47;5.85;;;;;;;21.58;72.14;94930.59;6153510;23;20196;-69
2023/07/04 07:44:13;;;;;;;7.40;5.70;;;;;;;21.64;71.92;94931.66;6128590;23;20180;-69
2023/07/04 07:46:46;;;;;;;8.75;7.25;;;;;;;21.67;71.05;94930.81;6139225;23;20223;-69
2023/07/04 07:49:14;;;;;;;5.85;5.00;;;;;;;21.73;70.47;94934.72;6129781;23;20164;-69
2023/07/04 07:51:43;;;;;;;6.53;5.72;;;;;;;21.76;69.55;94935.91;6152973;23;20168;-69
2023/07/04 07:54:13;;;;;;;5.57;5.07;;;;;;;21.81;69.88;94935.38;6128795;23;20179;-69
2023/07/04 07:56:44;;;;;;;5.82;5.30;;;;;;;21.83;69.72;94936.56;6129209;23;20227;-69
2023/07/04 07:59:13;;;;;;;5.55;5.05;;;;;;;21.89;69.03;94931.22;6128678;23;20258;-69
2023/07/04 08:01:47;;;;;;;4.63;4.30;;;;;;;21.96;66.98;94930.28;6129701;23;20179;-69
2023/07/04 08:04:15;;;;;;;4.93;4.53;;;;;;;21.98;66.72;94930.66;6139067;23;20167;-70
2023/07/04 08:06:45;;;;;;;5.05;4.50;;;;;;;21.99;65.78;94933.03;6139122;23;20168;-69
2023/07/04 08:09:15;;;;;;;4.30;3.90;;;;;;;22.02;64.79;94922.97;6127529;23;20176;-69
2023/07/04 08:11:45;;;;;;;5.07;4.68;;;;;;;22.04;65.18;94932.56;6128679;23;20179;-70
2023/07/04 08:14:14;;;;;;;5.75;5.25;;;;;;;22.07;66.40;94925.25;6152941;23;20179;-70
2023/07/04 08:16:49;;;;;;;6.10;5.40;;;;;;;22.15;67.17;94931.56;6129522;23;20179;-70
2023/07/04 08:19:19;;;;;;;5.78;4.55;;;;;;;22.22;67.16;94914.56;6153408;23;20203;-70
2023/07/04 08:21:48;;;;;;;7.25;6.60;;;;;;;22.26;66.65;94921.72;6129579;23;20198;-70
2023/07/04 08:24:16;;;;;;;5.25;4.75;;;;;;;22.30;65.93;94919.63;6129028;23;20193;-70
2023/07/04 08:26:46;;;;;;;5.47;5.00;;;;;;;22.42;66.91;94920.97;6152465;23;20215;-70
2023/07/04 08:29:17;;;;;;;6.40;4.80;;;;;;;22.63;66.42;94919.75;6129078;23;20462;-70
2023/07/04 08:31:48;;;;;;;6.00;5.35;;;;;;;22.83;64.88;94909.22;6129444;23;20160;-70
2023/07/04 08:34:16;;;;;;;6.68;6.07;;;;;;;22.86;66.02;94912.41;6127929;23;20259;-70
2023/07/04 08:36:50;;;;;;;5.03;4.57;;;;;;;22.90;65.15;94913.09;6129638;23;20226;-70
2023/07/04 08:39:18;;;;;;;5.90;5.40;;;;;;;22.94;66.38;94911.81;6129375;23;20164;-70
2023/07/04 08:41:53;;;;;;;5.60;5.10;;;;;;;22.99;66.78;94904.91;6129291;23;20199;-70
2023/07/04 08:44:22;;;;;;;6.90;5.70;;;;;;;23.05;67.25;94914.38;6127540;23;20172;-70
2023/07/04 08:46:56;;;;;;;6.10;5.60;;;;;;;23.09;65.33;94909.47;6129460;23;20160;-70
2023/07/04 08:49:34;;;;;;;6.10;5.50;;;;;;;23.27;64.86;94909.81;6153290;23;20235;-72
2023/07/04 08:52:05;;;;;;;6.53;5.93;;;;;;;23.47;65.29;94911.78;6128945;23;20171;-71
2023/07/04 08:54:34;;;;;;;6.18;5.55;;;;;;;23.63;65.54;94908.94;6128390;23;20183;-70
2023/07/04 08:57:03;;;;;;;7.05;6.07;;;;;;;23.77;65.04;94905.78;6128254;23;20566;-70
2023/07/04 08:59:42;;;;;;;6.18;5.55;;;;;;;23.83;64.42;94903.22;6129219;23;20167;-70
2023/07/04 09:02:32;;;;;;;6.22;5.72;;;;;;;23.81;63.04;94894.41;6129231;23;20184;-70
2023/07/04 09:05:07;;;;;;;6.22;5.63;;;;;;;23.88;65.01;94902.66;6128495;23;20172;-70
2023/07/04 09:07:40;;;;;;;7.70;6.25;;;;;;;24.01;65.06;94899.91;6139317;23;20171;-70
2023/07/04 09:10:19;;;;;;;6.13;5.63;;;;;;;24.11;65.04;94895.19;6128978;23;20179;-70
2023/07/04 09:12:48;;;;;;;6.90;6.22;;;;;;;24.28;63.40;94896.72;6128315;23;20234;-70
2023/07/04 09:15:26;;;;;;;6.70;6.10;;;;;;;24.30;60.13;94893.50;6128274;23;20179;-70
2023/07/04 09:18:02;;;;;;;6.88;6.22;;;;;;;24.35;64.11;94902.16;6127599;23;20175;-70
2023/07/04 09:20:31;;;;;;;6.68;5.93;;;;;;;24.51;59.57;94901.34;6135560;23;20180;-70
2023/07/04 09:23:03;;;;;;;8.15;6.38;;;;;;;24.56;62.31;94905.63;6127842;23;20522;-70
2023/07/04 09:25:31;;;;;;;6.90;6.28;;;;;;;24.64;62.99;94892.91;6127735;23;20230;-70
2023/07/04 09:27:59;;;;;;;7.25;6.55;;;;;;;24.74;62.38;94898.22;6152204;23;20195;-70
2023/07/04 09:30:27;;;;;;;7.15;6.45;;;;;;;24.80;60.67;94892.81;6129632;23;20207;-70
2023/07/04 09:32:56;;;;;;;7.32;6.60;;;;;;;24.92;61.32;94886.38;6128024;23;20168;-70
2023/07/04 09:35:27;;;;;;;8.25;6.88;;;;;;;24.97;60.05;94877.34;6128561;23;20211;-68
2023/07/04 09:38:00;;;;;;;8.50;7.70;;;;;;;25.17;61.09;94885.63;6127740;23;20475;-68
2023/07/04 09:40:45;;;;;;;7.85;6.60;;;;;;;25.31;59.33;94886.38;6127751;23;20199;-68
2023/07/04 09:43:27;;;;;;;7.07;6.45;;;;;;;25.35;58.48;94882.22;6151958;23;20215;-68
2023/07/04 09:46:13;;;;;;;7.35;6.65;;;;;;;25.43;60.33;94871.47;6127680;23;20176;-68
2023/07/04 09:48:49;;;;;;;7.80;7.10;;;;;;;25.62;59.61;94878.09;6128192;23;20259;-68
2023/07/04 09:51:28;;;;;;;8.45;7.03;;;;;;;25.74;59.84;94870.81;6128843;23;20159;-68
2023/07/04 09:54:16;;;;;;;9.20;6.95;;;;;;;25.79;57.91;94875.94;6152252;23;20194;-68
2023/07/04 09:56:45;;;;;;;7.45;6.75;;;;;;;25.82;60.11;94872.97;6128746;23;20456;-67
2023/07/04 09:59:15;;;;;;;7.72;6.93;;;;;;;25.90;55.88;94870.69;6128877;23;20183;-67
2023/07/04 10:01:48;;;;;;;8.82;7.95;;;;;;;25.85;56.98;94865.63;6128657;23;20187;-67
2023/07/04 10:04:33;;;;;;;9.70;7.30;;;;;;;25.95;59.98;94870.09;6127580;23;20207;-67
2023/07/04 10:07:04;;;;;;;8.55;7.38;;;;;;;26.10;58.19;94867.53;6127675;23;20172;-68
2023/07/04 10:09:33;;;;;;;8.15;7.45;;;;;;;26.14;55.69;94865.38;6128799;23;20172;-68
2023/07/04 10:12:13;;;;;;;7.93;7.13;;;;;;;26.15;57.16;94862.09;6128587;23;20168;-67
2023/07/04 10:14:49;;;;;;;7.35;6.45;;;;;;;26.23;59.75;94856.97;6138148;23;20175;-67
2023/07/04 10:17:19;;;;;;;7.75;7.00;;;;;;;26.24;56.47;94852.88;6138332;23;20223;-67
2023/07/04 10:19:53;;;;;;;7.13;6.47;;;;;;;26.34;56.39;94857.38;6138516;23;20182;-67
2023/07/04 10:22:31;;;;;;;8.48;7.72;;;;;;;26.38;58.85;94852.34;6151910;23;20545;-67
2023/07/04 10:24:59;;;;;;;8.20;7.07;;;;;;;26.50;57.42;94855.59;6152010;23;20179;-67
2023/07/04 10:27:32;;;;;;;8.02;7.13;;;;;;;26.58;56.33;94852.06;6138034;23;20585;-68
2023/07/04 10:30:01;;;;;;;7.68;6.97;;;;;;;26.64;59.18;94849.41;6128526;23;20168;-68
2023/07/04 10:32:36;;;;;;;7.95;7.25;;;;;;;26.80;55.85;94849.19;6138397;23;20457;-66
2023/07/04 10:35:10;;;;;;;8.27;7.15;;;;;;;26.78;54.23;94843.19;6128745;23;20168;-66
2023/07/04 10:37:40;;;;;;;8.48;7.70;;;;;;;26.78;55.13;94837.53;6138245;23;20171;-67
2023/07/04 10:40:11;;;;;;;7.63;6.88;;;;;;;26.71;53.12;94839.84;6127397;23;20186;-67
2023/07/04 10:42:42;;;;;;;11.77;7.28;;;;;;;26.71;54.33;94846.28;6127655;23;20195;-67
2023/07/04 10:45:10;;;;;;;8.52;7.70;;;;;;;26.88;55.69;94836.31;6128553;23;20160;-67
2023/07/04 10:47:39;;;;;;;9.68;7.53;;;;;;;27.03;57.81;94828.03;6152332;23;20179;-67
2023/07/04 10:50:21;;;;;;;8.27;7.53;;;;;;;27.10;58.02;94826.97;6127539;23;20240;-67
2023/07/04 10:52:49;;;;;;;7.90;7.10;;;;;;;27.17;55.22;94828.75;6127820;23;20250;-67
2023/07/04 10:55:20;;;;;;;8.38;7.53;;;;;;;27.20;54.18;94834.25;6128174;23;20186;-67
2023/07/04 10:57:56;;;;;;;7.78;7.03;;;;;;;27.21;54.61;94832.22;6152212;23;20175;-67
2023/07/04 11:00:29;;;;;;;8.20;7.18;;;;;;;27.16;56.35;94832.81;6128267;23;20160;-67
2023/07/04 11:03:01;;;;;;;9.32;7.60;;;;;;;26.91;52.81;94828.94;6127467;23;20250;-68
2023/07/04 11:05:36;;;;;;;8.90;8.10;;;;;;;26.89;56.98;94820.91;6138048;23;20182;-67
2023/07/04 11:08:07;;;;;;;10.23;9.23;;;;;;;27.00;53.28;94828.97;6139068;23;20172;-67
2023/07/04 11:10:40;;;;;;;10.30;7.80;;;;;;;26.99;52.40;94815.28;6129968;23;20187;-67
2023/07/04 11:13:08;;;;;;;8.85;7.75;;;;;;;26.87;54.19;94812.13;6129815;23;20172;-67
2023/07/04 11:15:38;;;;;;;8.93;8.02;;;;;;;27.05;56.77;94805.72;6139961;23;20179;-67
2023/07/04 11:18:09;;;;;;;8.65;7.90;;;;;;;27.27;54.96;94810.50;6129256;23;20182;-68
2023/07/04 11:21:07;;;;;;;8.65;7.80;;;;;;;27.39;51.73;94801.13;6129435;23;20179;-67
2023/07/04 11:23:50;;;;;;;8.82;8.02;;;;;;;27.43;54.86;94801.75;6153602;23;20204;-67
2023/07/04 11:26:21;;;;;;;9.00;8.10;;;;;;;27.52;54.41;94798.13;6128395;23;20219;-67
2023/07/04 11:28:56;;;;;;;8.68;7.82;;;;;;;27.57;53.56;94797.50;6130003;23;20168;-67
2023/07/04 11:31:31;;;;;;;8.30;7.50;;;;;;;27.62;51.97;94791.22;6127085;23;20183;-67
2023/07/04 11:34:23;;;;;;;7.97;7.28;;;;;;;27.65;50.77;94790.28;6128467;23;20172;-68
2023/07/04 11:36:59;;;;;;;8.63;7.07;;;;;;;27.68;51.47;94780.06;6130000;23;20176;-67
2023/07/04 11:39:33;;;;;;;9.00;8.07;;;;;;;27.72;51.44;94781.47;6129996;23;20225;-67
2023/07/04 11:42:20;;;;;;;8.50;7.80;;;;;;;27.73;49.81;94783.03;6129823;23;20167;-70
2023/07/04 11:45:02;;;;;;;8.80;7.90;;;;;;;27.82;50.84;94768.13;6138564;23;20510;-70
2023/07/04 11:47:37;;;;;;;8.93;8.13;;;;;;;27.93;52.73;94774.09;6130455;23;20170;-71
2023/07/04 11:50:16;;;;;;;8.43;7.78;;;;;;;27.97;51.83;94773.94;6127745;23;20179;-71
2023/07/04 11:53:02;;;;;;;8.82;7.97;;;;;;;28.03;49.87;94774.84;6129916;23;20159;-71